EGCCLXGB

Guest
Details From EGCC - Manchester
To LXGB - Gibraltar
Flight Number -
Tags Generated
Created
Modified
Stats Distance 1,041 nm / 1,927 km
Max Altitude 0 ft / 0 m
Waypoints 6
Social Downloads 10
Likes 0
Share VATSIM

Download

Looking for another format? Having issues loading an existing format? Contact us
Advertisement - Login to hide

Notes

Generated

Route

EGCC TIRGI PEPET DIPOL BRIKE LXGB

ID Type Via Altitude Latitude Longitude Leg Dist Tot Dist Heading (true) Name
O EGCC APT - 0 ft / 0 m 53.33197˚ -2.31066˚ - 0 nm - -
TIRGI FIX - 0 ft / 0 m 48.79194˚ -3.23056˚ 274 nm 274 nm 188° / 187° -
PEPET FIX - 0 ft / 0 m 45.08417˚ -3.86722˚ 224 nm 499 nm 187° / 186° -
DIPOL FIX - 0 ft / 0 m 40.41646˚ -4.67629˚ 282 nm 781 nm 188° / 187° -
BRIKE FIX - 0 ft / 0 m 36.50478˚ -5.41645˚ 237 nm 1019 nm 189° / 188° -
O LXGB APT - 0 ft / 0 m 36.15080˚ -5.35977˚ 21 nm 1040 nm 173° / 173° -

Altitude Profile

Advertisement - Login to hide

Weather


0- 5 10 15 20 25 30 35+ Temperature / ° C

Clouds and Precipitation
Forecast for 2017-12-16 06:00 UTC. Updated 26 minutes ago

Ground ~20,000 ft ~40,000 ft Winds

EGCC

Details ICAO EGCC (MAN)
Name Manchester Intl
Region United Kingdom
Timezone Europe/London (UTC+0.0)
Stats Elevation 257 ft / 78 m (AMSL)
Location 53.347141° -2.283954°
Runways 2
Magnetic Variation 1.461° W

METAR

EGCC 160520Z AUTO 28005KT 9999 NCD 00/M01 Q1015 NOSIG

Decode

TAF

TAF EGCC 152304Z 1600/1706 31004KT CAVOK TEMPO 1600/1609 7000 PROB30 TEMPO 1607/1609 3000 BR MIFG BKN007 BECMG 1609/1612 BKN007 TEMPO 1609/1615 7000 -RADZ BKN004 PROB30 TEMPO 1610/1615 3000 RADZ BECMG 1615/1618 4000 -RADZ BKN004 TEMPO 1618/1703 0600 DZ FG BKN000 BECMG 1703/1706 9999 NSW BKN007 TEMPO 1703/1706 4000 RADZ BKN004

Decode

Departure Runways

ID Width Length Bearing (true) Bearing (mag) Surface Threshold Offset Overrun Length
05L 151 ft / 46 m 9,981 ft / 3,042 m 50.99° 52.45° Asphalt 1,401 ft / 427 m 0 ft / 0 m
05R 151 ft / 46 m 9,952 ft / 3,033 m 50.97° 52.43° Asphalt 0 ft / 0 m 26 ft / 8 m
23L 151 ft / 46 m 9,952 ft / 3,033 m 231.00° 232.46° Asphalt 561 ft / 171 m 0 ft / 0 m
23R 151 ft / 46 m 9,981 ft / 3,042 m 231.02° 232.48° Asphalt 597 ft / 182 m 0 ft / 0 m

LXGB

Details ICAO LXGB (GIB)
Name Gibraltar
Region Gibralter
Timezone Europe/Gibraltar (UTC+1.0)
Stats Elevation 15 ft / 5 m (AMSL)
Location 36.151209° -5.349664°
Runways 1
Magnetic Variation 1.122° W

METAR

LXGB 160450Z AUTO 27015KT 9999 // NCD 12/09 Q1014

Decode

TAF

Not found

Destination Runways

ID Width Length Bearing (true) Bearing (mag) Surface Threshold Offset Overrun Length
27 151 ft / 46 m 5,992 ft / 1,826 m 267.56° 268.68° Asphalt 367 ft / 112 m 89 ft / 27 m
9 151 ft / 46 m 5,992 ft / 1,826 m 87.54° 88.66° Asphalt 299 ft / 91 m 52 ft / 16 m

Popular Alternatives